createdAt,value
2022-10-09T00:01:17.627Z,24.30
2022-10-09T00:03:46.836Z,24.30
2022-10-09T00:06:18.174Z,24.20
2022-10-09T00:08:45.422Z,24.20
2022-10-09T00:11:19.084Z,24.20
2022-10-09T00:13:47.603Z,24.20
2022-10-09T00:16:16.622Z,24.30
2022-10-09T00:18:46.183Z,24.30
2022-10-09T00:21:42.381Z,24.20
2022-10-09T00:24:09.426Z,24.20
2022-10-09T00:26:36.293Z,24.20
2022-10-09T00:29:03.658Z,24.20
2022-10-09T00:31:30.523Z,24.20
2022-10-09T00:33:57.290Z,24.20
2022-10-09T00:36:27.659Z,24.20
2022-10-09T00:38:57.250Z,24.20
2022-10-09T00:41:27.252Z,24.20
2022-10-09T00:43:56.900Z,24.20
2022-10-09T00:46:26.451Z,24.20
2022-10-09T00:49:08.175Z,24.10
2022-10-09T00:51:35.290Z,24.20
2022-10-09T00:54:05.026Z,24.10
2022-10-09T00:56:31.880Z,24.20
2022-10-09T00:58:58.821Z,24.10
2022-10-09T01:01:25.622Z,24.10
2022-10-09T01:03:52.438Z,24.10
2022-10-09T01:06:31.067Z,24.10
2022-10-09T01:09:07.657Z,24.10
2022-10-09T01:11:58.854Z,24.10
2022-10-09T01:14:34.099Z,24.10
2022-10-09T01:17:18.178Z,24.10
2022-10-09T01:20:04.351Z,24.10
2022-10-09T01:22:55.845Z,24.10
2022-10-09T01:25:33.224Z,24.00
2022-10-09T01:28:02.993Z,24.00
2022-10-09T01:30:30.818Z,24.00
2022-10-09T01:32:58.660Z,24.00
2022-10-09T01:35:26.060Z,24.00
2022-10-09T01:37:54.678Z,24.00
2022-10-09T01:40:22.923Z,24.00
2022-10-09T01:42:52.310Z,24.00
2022-10-09T01:45:19.062Z,24.00
2022-10-09T01:47:46.404Z,24.00
2022-10-09T01:50:27.309Z,24.00
2022-10-09T01:53:00.389Z,23.90
2022-10-09T01:55:44.931Z,24.00
2022-10-09T01:58:39.442Z,23.90
2022-10-09T02:01:13.732Z,23.90
2022-10-09T02:03:42.815Z,23.90
2022-10-09T02:06:12.733Z,23.90
2022-10-09T02:08:41.037Z,23.90
2022-10-09T02:11:08.152Z,23.90
2022-10-09T02:13:36.087Z,23.90
2022-10-09T02:16:11.444Z,23.80
2022-10-09T02:18:45.427Z,23.90
2022-10-09T02:21:26.220Z,23.80
2022-10-09T02:23:54.760Z,23.80
2022-10-09T02:26:21.640Z,23.80
2022-10-09T02:28:48.451Z,23.80
2022-10-09T02:31:22.927Z,23.80
2022-10-09T02:34:01.315Z,23.80
2022-10-09T02:36:29.773Z,23.80
2022-10-09T02:38:57.213Z,23.80
2022-10-09T02:41:24.770Z,23.80
2022-10-09T02:43:51.720Z,23.80
2022-10-09T02:46:18.988Z,23.80
2022-10-09T02:48:45.729Z,23.80
2022-10-09T02:51:12.610Z,23.80
2022-10-09T02:53:39.540Z,23.80
2022-10-09T02:56:06.548Z,23.80
2022-10-09T02:58:35.154Z,23.80
2022-10-09T03:01:02.227Z,23.80
2022-10-09T03:03:28.957Z,23.80
2022-10-09T03:06:02.572Z,23.70
2022-10-09T03:08:29.529Z,23.80
2022-10-09T03:10:56.740Z,23.80
2022-10-09T03:13:23.905Z,23.80
2022-10-09T03:15:50.698Z,23.70
2022-10-09T03:18:17.498Z,23.70
2022-10-09T03:20:44.253Z,23.70
2022-10-09T03:23:11.816Z,23.70
2022-10-09T03:25:38.561Z,23.70
2022-10-09T03:28:05.317Z,23.70
2022-10-09T03:30:32.121Z,23.70
2022-10-09T03:32:58.897Z,23.70
2022-10-09T03:35:25.679Z,23.70
2022-10-09T03:37:52.413Z,23.70
2022-10-09T03:40:19.197Z,23.70
2022-10-09T03:42:48.242Z,23.60
2022-10-09T03:45:19.792Z,23.70
2022-10-09T03:47:46.480Z,23.70
2022-10-09T03:50:13.181Z,23.70
2022-10-09T03:52:40.995Z,23.60
2022-10-09T03:55:08.247Z,23.60
2022-10-09T03:57:35.627Z,23.70
2022-10-09T04:00:02.454Z,23.60
2022-10-09T04:02:29.213Z,23.60
2022-10-09T04:04:55.947Z,23.70
2022-10-09T04:07:22.642Z,23.60
2022-10-09T04:09:49.369Z,23.70
2022-10-09T04:12:16.531Z,23.60
2022-10-09T04:14:43.273Z,23.60
2022-10-09T04:17:10.068Z,23.60
2022-10-09T04:19:36.772Z,23.60
2022-10-09T04:22:03.630Z,23.50
2022-10-09T04:24:32.705Z,23.50
2022-10-09T04:26:59.408Z,23.60
2022-10-09T04:29:26.164Z,23.50
2022-10-09T04:31:53.049Z,23.60
2022-10-09T04:34:19.884Z,23.60
2022-10-09T04:36:46.628Z,23.50
2022-10-09T04:39:13.437Z,23.60
2022-10-09T04:41:40.153Z,23.50
2022-10-09T04:44:07.186Z,23.50
2022-10-09T04:46:33.969Z,23.50
2022-10-09T04:49:00.703Z,23.50
2022-10-09T04:51:27.719Z,23.50
2022-10-09T04:54:00.321Z,23.50
2022-10-09T04:56:27.432Z,23.50
2022-10-09T04:58:54.577Z,23.50
2022-10-09T05:01:23.462Z,23.50
2022-10-09T05:03:53.968Z,23.50
2022-10-09T05:06:25.320Z,23.50
2022-10-09T05:08:53.143Z,23.50
2022-10-09T05:11:22.923Z,23.50
2022-10-09T05:13:52.132Z,23.50
2022-10-09T05:16:22.165Z,23.50
2022-10-09T05:18:51.361Z,23.50
2022-10-09T05:21:19.040Z,23.40
2022-10-09T05:23:49.570Z,23.40
2022-10-09T05:26:18.741Z,23.40
2022-10-09T05:28:46.200Z,23.40
2022-10-09T05:31:27.521Z,23.40
2022-10-09T05:33:55.961Z,23.40
2022-10-09T05:36:23.992Z,23.40
2022-10-09T05:38:50.685Z,23.50
2022-10-09T05:41:19.389Z,23.40
2022-10-09T05:43:48.105Z,23.40
2022-10-09T05:46:20.363Z,23.40
2022-10-09T05:48:55.349Z,23.40
2022-10-09T05:51:32.891Z,23.40
2022-10-09T05:54:02.191Z,23.40
2022-10-09T05:56:37.513Z,23.40
2022-10-09T05:59:06.870Z,23.40
2022-10-09T06:01:36.031Z,23.40
2022-10-09T06:04:03.901Z,23.40
2022-10-09T06:06:37.041Z,23.40
2022-10-09T06:09:04.703Z,23.40
2022-10-09T06:11:34.506Z,23.40
2022-10-09T06:14:03.346Z,23.40
2022-10-09T06:16:32.619Z,23.40
2022-10-09T06:19:02.254Z,23.40
2022-10-09T06:21:29.252Z,23.40
2022-10-09T06:23:58.710Z,23.40
2022-10-09T06:26:29.054Z,23.40
2022-10-09T06:28:56.911Z,23.40
2022-10-09T06:31:27.603Z,23.40
2022-10-09T06:33:55.429Z,23.40
2022-10-09T06:36:25.276Z,23.40
2022-10-09T06:38:53.592Z,23.40
2022-10-09T06:41:25.914Z,23.40
2022-10-09T06:44:01.190Z,23.40
2022-10-09T06:46:39.604Z,23.40
2022-10-09T06:49:08.077Z,23.40
2022-10-09T06:51:35.908Z,23.40
2022-10-09T06:54:07.307Z,23.40
2022-10-09T06:56:34.047Z,23.40
2022-10-09T06:59:03.043Z,23.40
2022-10-09T07:01:32.131Z,23.50
2022-10-09T07:04:09.070Z,23.50
2022-10-09T07:06:39.946Z,23.50
2022-10-09T07:09:08.871Z,23.50
2022-10-09T07:11:38.454Z,23.50
2022-10-09T07:14:08.275Z,23.50
2022-10-09T07:16:40.396Z,23.50
2022-10-09T07:19:10.954Z,23.50
2022-10-09T07:21:40.212Z,23.50
2022-10-09T07:24:07.697Z,23.50
2022-10-09T07:26:37.085Z,23.50
2022-10-09T07:29:06.031Z,23.60
2022-10-09T07:31:32.752Z,23.60
2022-10-09T07:33:59.908Z,23.60
2022-10-09T07:36:26.763Z,23.70
2022-10-09T07:38:55.693Z,23.70
2022-10-09T07:41:24.370Z,23.80
2022-10-09T07:43:51.192Z,23.80
2022-10-09T07:46:21.027Z,23.90
2022-10-09T07:48:49.002Z,23.90
2022-10-09T07:51:17.095Z,24.00
2022-10-09T07:53:44.982Z,24.00
2022-10-09T07:56:23.440Z,24.10
2022-10-09T07:58:51.876Z,24.10
2022-10-09T08:01:20.576Z,24.20
2022-10-09T08:03:50.235Z,24.20
2022-10-09T08:06:18.051Z,24.30
2022-10-09T08:08:45.431Z,24.30
2022-10-09T08:11:15.076Z,24.40
2022-10-09T08:13:42.581Z,24.40
2022-10-09T08:16:09.635Z,24.50
2022-10-09T08:18:36.923Z,24.50
2022-10-09T08:21:15.290Z,24.60
2022-10-09T08:23:42.182Z,24.60
2022-10-09T08:26:19.876Z,24.70
2022-10-09T08:28:51.252Z,24.80
2022-10-09T08:31:18.521Z,24.80
2022-10-09T08:33:45.416Z,24.90
2022-10-09T08:36:15.238Z,25.00
2022-10-09T08:38:47.919Z,25.00
2022-10-09T08:41:33.138Z,25.10
2022-10-09T08:44:07.206Z,25.20
2022-10-09T08:46:55.588Z,25.20
2022-10-09T08:49:41.968Z,25.30
2022-10-09T08:52:30.590Z,25.30
2022-10-09T08:55:03.913Z,25.40
2022-10-09T08:57:34.380Z,25.40
2022-10-09T09:00:01.157Z,25.50
2022-10-09T09:03:05.299Z,25.60
2022-10-09T09:05:52.736Z,25.60
2022-10-09T09:08:35.247Z,25.60
2022-10-09T09:11:18.112Z,25.60
2022-10-09T09:13:57.200Z,25.70
2022-10-09T09:16:40.155Z,25.70
2022-10-09T09:19:45.702Z,25.80
2022-10-09T09:22:15.112Z,25.90
2022-10-09T09:24:55.196Z,25.90
2022-10-09T09:27:36.652Z,25.90
2022-10-09T09:30:12.320Z,25.90
2022-10-09T09:33:11.299Z,25.90
2022-10-09T09:36:08.920Z,26.00
2022-10-09T09:38:47.810Z,25.90
2022-10-09T09:41:25.795Z,25.90
2022-10-09T09:43:52.549Z,25.90
2022-10-09T09:46:23.984Z,25.90
2022-10-09T09:48:50.821Z,25.90
2022-10-09T09:51:30.236Z,25.90
2022-10-09T09:54:05.593Z,25.90
2022-10-09T09:56:53.162Z,26.00
2022-10-09T09:59:37.339Z,26.00
2022-10-09T10:02:21.146Z,26.00
2022-10-09T10:04:59.182Z,26.10
2022-10-09T10:07:37.024Z,26.10
2022-10-09T10:10:09.778Z,26.10
2022-10-09T10:12:41.461Z,26.10
2022-10-09T10:15:28.536Z,26.10
2022-10-09T10:18:02.613Z,26.20
2022-10-09T10:20:32.509Z,26.10
2022-10-09T10:23:00.492Z,26.10
2022-10-09T10:25:32.516Z,26.10
2022-10-09T10:28:15.476Z,26.10
2022-10-09T10:30:42.706Z,26.10
2022-10-09T10:33:12.615Z,26.10
2022-10-09T10:35:43.286Z,26.20
2022-10-09T10:38:43.603Z,26.20
2022-10-09T10:41:34.010Z,26.20
2022-10-09T10:44:21.191Z,26.20
2022-10-09T10:46:54.161Z,26.30
2022-10-09T10:49:22.888Z,26.30
2022-10-09T10:52:15.448Z,26.20
2022-10-09T10:55:20.130Z,26.30
2022-10-09T10:58:02.504Z,26.30
2022-10-09T11:00:30.950Z,26.40
2022-10-09T11:03:19.115Z,26.40
2022-10-09T11:06:01.489Z,26.40
2022-10-09T11:08:46.655Z,26.40
2022-10-09T11:11:37.837Z,26.40
2022-10-09T11:14:08.868Z,26.40
2022-10-09T11:16:47.118Z,26.40
2022-10-09T11:19:32.911Z,26.40
2022-10-09T11:22:02.796Z,26.40
2022-10-09T11:24:48.504Z,26.40
2022-10-09T11:27:25.326Z,26.40
2022-10-09T11:30:02.476Z,26.50
2022-10-09T11:32:51.334Z,26.50
2022-10-09T11:35:23.132Z,26.50
2022-10-09T11:38:32.884Z,26.50
2022-10-09T11:41:03.902Z,26.50
2022-10-09T11:44:00.715Z,26.50
2022-10-09T11:46:54.137Z,26.50
2022-10-09T11:49:30.190Z,26.50
2022-10-09T11:52:37.963Z,26.50
2022-10-09T11:55:16.272Z,26.40
2022-10-09T11:57:43.030Z,26.40
2022-10-09T12:00:10.706Z,26.50
2022-10-09T12:02:38.521Z,26.50
2022-10-09T12:05:18.705Z,26.50
2022-10-09T12:07:46.009Z,26.50
2022-10-09T12:10:30.716Z,26.50
2022-10-09T12:13:01.135Z,26.40
2022-10-09T12:15:45.186Z,25.60
2022-10-09T12:18:31.457Z,24.80
2022-10-09T12:21:00.977Z,24.20
2022-10-09T12:23:32.708Z,23.80
2022-10-09T12:26:01.634Z,23.40
2022-10-09T12:28:38.951Z,23.20
2022-10-09T12:31:17.330Z,23.10
2022-10-09T12:33:47.958Z,23.10
2022-10-09T12:36:24.971Z,23.10
2022-10-09T12:38:52.073Z,23.10
2022-10-09T12:41:34.250Z,23.00
2022-10-09T12:44:01.927Z,23.10
2022-10-09T12:46:39.248Z,23.00
2022-10-09T12:49:19.669Z,23.00
2022-10-09T12:51:56.433Z,22.90
2022-10-09T12:54:25.418Z,22.90
2022-10-09T12:56:54.969Z,22.70
2022-10-09T12:59:24.746Z,22.70
2022-10-09T13:01:58.239Z,22.60
2022-10-09T13:04:31.955Z,22.60
2022-10-09T13:07:02.883Z,22.60
2022-10-09T13:09:40.472Z,22.40
2022-10-09T13:12:17.924Z,22.30
2022-10-09T13:14:51.833Z,22.30
2022-10-09T13:17:25.732Z,22.20
2022-10-09T13:19:55.140Z,22.10
2022-10-09T13:22:33.752Z,22.00
2022-10-09T13:25:03.506Z,21.90
2022-10-09T13:27:34.631Z,21.90
2022-10-09T13:30:02.236Z,21.70
2022-10-09T13:32:29.037Z,21.60
2022-10-09T13:34:57.974Z,21.60
2022-10-09T13:37:26.345Z,21.60
2022-10-09T13:39:58.523Z,21.50
2022-10-09T13:42:28.406Z,21.50
2022-10-09T13:44:55.221Z,21.50
2022-10-09T13:47:24.632Z,21.50
2022-10-09T13:49:51.724Z,21.50
2022-10-09T13:52:18.706Z,21.50
2022-10-09T13:54:45.486Z,21.50
2022-10-09T13:57:12.473Z,21.30
2022-10-09T13:59:39.993Z,21.40
2022-10-09T14:02:07.177Z,21.30
2022-10-09T14:04:33.928Z,21.40
2022-10-09T14:07:00.679Z,21.40
2022-10-09T14:09:27.446Z,21.40
2022-10-09T14:11:54.419Z,21.40
2022-10-09T14:14:22.501Z,21.40
2022-10-09T14:16:50.697Z,21.50
2022-10-09T14:19:18.063Z,21.40
2022-10-09T14:21:46.844Z,21.40
2022-10-09T14:24:14.517Z,21.50
2022-10-09T14:26:41.332Z,21.50
2022-10-09T14:29:09.309Z,21.50
2022-10-09T14:31:38.426Z,21.50
2022-10-09T14:34:05.555Z,21.50
2022-10-09T14:36:32.302Z,21.50
2022-10-09T14:39:02.156Z,21.50
2022-10-09T14:41:33.175Z,21.50
2022-10-09T14:44:02.454Z,21.60
2022-10-09T14:46:30.065Z,22.00
2022-10-09T14:48:57.793Z,22.40
2022-10-09T14:51:27.019Z,22.80
2022-10-09T14:53:58.301Z,23.20
2022-10-09T14:56:26.361Z,23.50
2022-10-09T14:58:53.317Z,23.70
2022-10-09T15:01:21.678Z,23.90
2022-10-09T15:03:48.977Z,24.10
2022-10-09T15:06:23.963Z,24.30
2022-10-09T15:08:54.555Z,24.40
2022-10-09T15:11:21.326Z,24.50
2022-10-09T15:13:48.047Z,24.60
2022-10-09T15:16:17.751Z,24.70
2022-10-09T15:18:48.911Z,24.80
2022-10-09T15:21:30.285Z,24.80
2022-10-09T15:23:58.818Z,24.90
2022-10-09T15:26:27.592Z,24.90
2022-10-09T15:28:54.636Z,24.90
2022-10-09T15:31:30.464Z,25.00
2022-10-09T15:34:01.093Z,25.00
2022-10-09T15:36:28.876Z,25.00
2022-10-09T15:38:56.610Z,25.10
2022-10-09T15:41:31.153Z,25.10
2022-10-09T15:44:03.728Z,25.10
2022-10-09T15:46:30.953Z,25.10
2022-10-09T15:48:58.605Z,25.20
2022-10-09T15:51:26.082Z,25.20
2022-10-09T15:53:53.212Z,25.20
2022-10-09T15:56:23.020Z,25.30
2022-10-09T15:58:50.796Z,25.30
2022-10-09T16:01:18.348Z,25.30
2022-10-09T16:03:45.812Z,25.30
2022-10-09T16:06:15.709Z,25.40
2022-10-09T16:08:42.929Z,25.40
2022-10-09T16:11:13.658Z,25.40
2022-10-09T16:13:44.145Z,25.40
2022-10-09T16:16:14.663Z,25.50
2022-10-09T16:18:41.399Z,25.50
2022-10-09T16:21:14.081Z,25.50
2022-10-09T16:23:42.366Z,25.50
2022-10-09T16:26:10.766Z,25.50
2022-10-09T16:28:38.138Z,25.50
2022-10-09T16:31:05.270Z,25.50
2022-10-09T16:33:32.161Z,25.50
2022-10-09T16:36:12.177Z,25.50
2022-10-09T16:38:39.463Z,25.50
2022-10-09T16:41:18.031Z,25.50
2022-10-09T16:43:46.775Z,25.50
2022-10-09T16:46:19.406Z,25.50
2022-10-09T16:48:47.267Z,25.60
2022-10-09T16:51:17.624Z,25.50
2022-10-09T16:53:44.501Z,25.50
2022-10-09T16:56:14.388Z,25.50
2022-10-09T16:58:42.511Z,25.50
2022-10-09T17:01:10.920Z,25.50
2022-10-09T17:03:41.612Z,25.50
2022-10-09T17:06:14.232Z,25.50
2022-10-09T17:08:40.968Z,25.50
2022-10-09T17:11:12.790Z,25.40
2022-10-09T17:13:39.936Z,25.40
2022-10-09T17:16:08.457Z,25.40
2022-10-09T17:18:36.177Z,25.40
2022-10-09T17:21:07.547Z,25.40
2022-10-09T17:23:35.112Z,25.40
2022-10-09T17:26:10.082Z,25.40
2022-10-09T17:28:36.952Z,25.30
2022-10-09T17:31:09.463Z,25.30
2022-10-09T17:33:42.045Z,25.40
2022-10-09T17:36:16.140Z,25.30
2022-10-09T17:38:46.199Z,25.30
2022-10-09T17:41:14.712Z,25.30
2022-10-09T17:43:41.870Z,25.30
2022-10-09T17:46:09.346Z,25.30
2022-10-09T17:48:38.320Z,25.30
2022-10-09T17:51:05.259Z,25.30
2022-10-09T17:53:32.350Z,25.30
2022-10-09T17:56:04.221Z,25.30
2022-10-09T17:58:30.998Z,25.30
2022-10-09T18:01:00.490Z,25.30
2022-10-09T18:03:27.264Z,25.30
2022-10-09T18:05:53.995Z,25.30
2022-10-09T18:08:22.165Z,25.20
2022-10-09T18:11:04.204Z,25.30
2022-10-09T18:13:31.470Z,25.20
2022-10-09T18:15:58.685Z,25.20
2022-10-09T18:18:26.169Z,25.20
2022-10-09T18:20:53.392Z,25.20
2022-10-09T18:23:22.699Z,25.20
2022-10-09T18:25:49.721Z,25.20
2022-10-09T18:28:16.529Z,25.20
2022-10-09T18:30:46.092Z,25.20
2022-10-09T18:33:13.742Z,25.20
2022-10-09T18:35:40.810Z,25.10
2022-10-09T18:38:09.597Z,25.20
2022-10-09T18:40:45.735Z,25.20
2022-10-09T18:43:13.190Z,25.10
2022-10-09T18:45:44.572Z,25.20
2022-10-09T18:48:12.160Z,25.20
2022-10-09T18:50:39.358Z,25.20
2022-10-09T18:53:07.855Z,25.10
2022-10-09T18:55:35.111Z,25.10
2022-10-09T18:58:04.841Z,25.10
2022-10-09T19:00:32.188Z,25.10
2022-10-09T19:02:59.517Z,25.10
2022-10-09T19:05:26.680Z,25.10
2022-10-09T19:07:53.372Z,25.10
2022-10-09T19:10:20.551Z,25.10
2022-10-09T19:12:47.737Z,25.10
2022-10-09T19:15:14.504Z,25.10
2022-10-09T19:17:41.263Z,25.10
2022-10-09T19:20:09.036Z,25.00
2022-10-09T19:22:36.247Z,25.10
2022-10-09T19:25:04.624Z,25.00
2022-10-09T19:27:31.935Z,25.00
2022-10-09T19:29:58.917Z,25.10
2022-10-09T19:32:26.273Z,25.00
2022-10-09T19:34:53.087Z,25.00
2022-10-09T19:37:19.929Z,25.00
2022-10-09T19:39:49.690Z,25.00
2022-10-09T19:42:17.758Z,25.00
2022-10-09T19:44:45.823Z,25.00
2022-10-09T19:47:13.800Z,25.00
2022-10-09T19:49:40.601Z,25.00
2022-10-09T19:52:07.841Z,25.00
2022-10-09T19:54:36.667Z,25.00
2022-10-09T19:57:03.645Z,25.00
2022-10-09T19:59:31.198Z,25.00
2022-10-09T20:01:57.950Z,25.00
2022-10-09T20:04:24.916Z,25.00
2022-10-09T20:06:52.008Z,25.00
2022-10-09T20:09:20.735Z,25.00
2022-10-09T20:11:47.667Z,25.00
2022-10-09T20:14:14.554Z,25.00
2022-10-09T20:16:41.368Z,25.00
2022-10-09T20:19:08.295Z,25.00
2022-10-09T20:21:36.393Z,25.00
2022-10-09T20:24:03.272Z,25.00
2022-10-09T20:26:31.565Z,25.00
2022-10-09T20:28:58.629Z,25.00
2022-10-09T20:31:26.989Z,25.00
2022-10-09T20:33:54.745Z,25.00
2022-10-09T20:36:28.253Z,24.90
2022-10-09T20:38:59.971Z,24.90
2022-10-09T20:41:30.558Z,24.90
2022-10-09T20:43:59.614Z,24.90
2022-10-09T20:46:28.070Z,24.90
2022-10-09T20:48:55.002Z,24.90
2022-10-09T20:51:22.993Z,24.90
2022-10-09T20:53:55.762Z,24.90
2022-10-09T20:56:24.408Z,24.90
2022-10-09T20:58:51.528Z,24.90
2022-10-09T21:01:19.317Z,24.90
2022-10-09T21:03:46.118Z,24.90
2022-10-09T21:06:15.704Z,24.90
2022-10-09T21:08:42.525Z,24.90
2022-10-09T21:11:12.099Z,24.90
2022-10-09T21:13:40.019Z,24.90
2022-10-09T21:16:07.791Z,24.90
2022-10-09T21:18:34.582Z,24.90
2022-10-09T21:21:13.564Z,24.80
2022-10-09T21:23:41.525Z,24.80
2022-10-09T21:26:17.618Z,24.80
2022-10-09T21:28:45.042Z,24.90
2022-10-09T21:31:16.676Z,24.80
2022-10-09T21:33:43.763Z,24.80
2022-10-09T21:36:30.185Z,24.80
2022-10-09T21:38:57.306Z,24.80
2022-10-09T21:41:24.456Z,24.80
2022-10-09T21:43:51.199Z,24.80
2022-10-09T21:46:17.927Z,24.80
2022-10-09T21:48:44.706Z,24.80
2022-10-09T21:51:11.410Z,24.80
2022-10-09T21:53:38.162Z,24.80
2022-10-09T21:56:06.046Z,24.80
2022-10-09T21:58:32.728Z,24.80
2022-10-09T22:01:01.140Z,24.80
2022-10-09T22:03:30.037Z,24.80
2022-10-09T22:05:57.288Z,24.80
2022-10-09T22:08:25.191Z,24.80
2022-10-09T22:10:52.293Z,24.80
2022-10-09T22:13:21.130Z,24.80
2022-10-09T22:15:51.181Z,24.80
2022-10-09T22:18:19.587Z,24.80
2022-10-09T22:20:49.147Z,24.80
2022-10-09T22:23:20.369Z,24.80
2022-10-09T22:25:59.320Z,24.80
2022-10-09T22:28:26.234Z,24.80
2022-10-09T22:31:23.365Z,24.80
2022-10-09T22:33:51.916Z,24.80
2022-10-09T22:36:20.857Z,24.80
2022-10-09T22:38:47.637Z,24.80
2022-10-09T22:41:17.251Z,24.80
2022-10-09T22:43:48.691Z,24.80
2022-10-09T22:46:19.196Z,24.80
2022-10-09T22:48:46.327Z,24.80
2022-10-09T22:51:17.802Z,24.80
2022-10-09T22:53:45.434Z,24.80
2022-10-09T22:56:17.713Z,24.80
2022-10-09T22:58:45.257Z,24.80
2022-10-09T23:01:19.115Z,24.80
2022-10-09T23:03:46.084Z,24.80
2022-10-09T23:06:18.644Z,24.80
2022-10-09T23:08:47.097Z,24.80
2022-10-09T23:11:14.999Z,24.80
2022-10-09T23:13:41.869Z,24.80
2022-10-09T23:16:11.352Z,24.80
2022-10-09T23:18:39.423Z,24.70
2022-10-09T23:21:08.887Z,24.80
2022-10-09T23:23:36.005Z,24.80
2022-10-09T23:26:11.126Z,24.80
2022-10-09T23:28:38.388Z,24.80
2022-10-09T23:31:11.340Z,24.70
2022-10-09T23:33:39.791Z,24.80
2022-10-09T23:36:08.157Z,24.70
2022-10-09T23:38:35.493Z,24.70
2022-10-09T23:41:09.063Z,24.70
2022-10-09T23:43:37.525Z,24.70
2022-10-09T23:46:06.672Z,24.70
2022-10-09T23:48:34.044Z,24.70
2022-10-09T23:51:00.898Z,24.70
2022-10-09T23:53:28.161Z,24.70
2022-10-09T23:55:55.017Z,24.70
2022-10-09T23:58:22.513Z,24.80
